createdAt,value
2019-03-29T00:01:11.264Z,24.23
2019-03-29T00:03:44.190Z,22.77
2019-03-29T00:06:16.745Z,24.17
2019-03-29T00:08:49.125Z,26.20
2019-03-29T00:11:21.014Z,26.67
2019-03-29T00:13:53.692Z,24.63
2019-03-29T00:16:26.037Z,23.20
2019-03-29T00:18:58.408Z,23.43
2019-03-29T00:21:31.190Z,21.03
2019-03-29T00:24:07.147Z,24.63
2019-03-29T00:26:37.267Z,24.67
2019-03-29T00:29:09.759Z,26.43
2019-03-29T00:31:42.775Z,23.73
2019-03-29T00:34:15.963Z,25.47
2019-03-29T00:36:48.646Z,25.80
2019-03-29T00:39:21.197Z,24.97
2019-03-29T00:41:53.483Z,30.27
2019-03-29T00:44:26.967Z,27.80
2019-03-29T00:46:59.234Z,26.43
2019-03-29T00:49:32.063Z,29.93
2019-03-29T00:52:04.009Z,25.67
2019-03-29T00:54:36.322Z,27.37
2019-03-29T00:57:08.528Z,24.43
2019-03-29T00:59:40.850Z,28.13
2019-03-29T01:02:14.117Z,26.67
2019-03-29T01:04:45.994Z,24.77
2019-03-29T01:07:18.034Z,31.13
2019-03-29T01:09:50.073Z,28.30
2019-03-29T01:12:22.605Z,29.10
2019-03-29T01:14:55.094Z,31.30
2019-03-29T01:17:27.442Z,26.70
2019-03-29T01:19:59.319Z,26.97
2019-03-29T01:22:32.327Z,27.90
2019-03-29T01:25:04.928Z,29.67
2019-03-29T01:27:38.202Z,29.60
2019-03-29T01:30:13.237Z,32.30
2019-03-29T01:32:46.515Z,31.63
2019-03-29T01:35:18.764Z,34.40
2019-03-29T01:37:51.115Z,37.47
2019-03-29T01:40:24.544Z,33.20
2019-03-29T01:42:57.169Z,32.60
2019-03-29T01:45:29.704Z,33.70
2019-03-29T01:48:02.149Z,38.07
2019-03-29T01:50:35.083Z,38.23
2019-03-29T01:53:08.167Z,39.63
2019-03-29T01:55:40.611Z,36.13
2019-03-29T01:58:13.415Z,36.13
2019-03-29T02:00:45.639Z,34.07
2019-03-29T02:03:17.951Z,35.37
2019-03-29T02:05:50.411Z,34.50
2019-03-29T02:08:35.181Z,34.10
2019-03-29T02:10:57.408Z,32.47
2019-03-29T02:13:29.552Z,33.17
2019-03-29T02:16:01.841Z,34.37
2019-03-29T02:18:34.449Z,32.93
2019-03-29T02:21:07.565Z,36.47
2019-03-29T02:23:41.352Z,34.80
2019-03-29T02:26:14.355Z,34.87
2019-03-29T02:28:46.867Z,35.47
2019-03-29T02:31:19.155Z,37.17
2019-03-29T02:33:51.330Z,31.77
2019-03-29T02:36:23.580Z,37.00
2019-03-29T02:38:58.771Z,33.67
2019-03-29T02:41:31.310Z,34.90
2019-03-29T02:44:03.798Z,37.23
2019-03-29T02:46:36.485Z,30.57
2019-03-29T02:49:09.163Z,32.93
2019-03-29T02:51:41.453Z,33.07
2019-03-29T02:54:13.878Z,35.20
2019-03-29T02:56:46.266Z,37.00
2019-03-29T02:59:18.654Z,35.80
2019-03-29T03:01:51.214Z,33.77
2019-03-29T03:04:23.110Z,35.00
2019-03-29T03:06:55.534Z,34.13
2019-03-29T03:09:28.137Z,32.27
2019-03-29T03:11:59.996Z,33.60
2019-03-29T03:14:32.629Z,32.63
2019-03-29T03:17:04.577Z,35.37
2019-03-29T03:19:37.205Z,34.00
2019-03-29T03:22:09.741Z,33.33
2019-03-29T03:24:41.802Z,32.77
2019-03-29T03:27:13.670Z,34.77
2019-03-29T03:29:48.042Z,31.80
2019-03-29T03:32:20.050Z,36.13
2019-03-29T03:34:53.284Z,41.03
2019-03-29T03:37:25.770Z,38.47
2019-03-29T03:39:58.686Z,37.20
2019-03-29T03:42:31.032Z,37.43
2019-03-29T03:45:03.603Z,40.30
2019-03-29T03:47:35.718Z,35.63
2019-03-29T03:50:09.810Z,38.63
2019-03-29T03:52:42.395Z,37.40
2019-03-29T03:55:15.571Z,43.57
2019-03-29T03:57:49.094Z,38.97
2019-03-29T04:00:26.107Z,40.23
2019-03-29T04:02:58.467Z,36.10
2019-03-29T04:05:30.909Z,35.07
2019-03-29T04:08:03.379Z,37.10
2019-03-29T04:10:36.586Z,39.53
2019-03-29T04:13:09.290Z,35.20
2019-03-29T04:15:41.812Z,35.33
2019-03-29T04:18:16.132Z,38.10
2019-03-29T04:20:47.941Z,38.67
2019-03-29T04:23:20.476Z,35.70
2019-03-29T04:25:52.538Z,40.30
2019-03-29T04:28:25.295Z,39.80
2019-03-29T04:30:58.348Z,37.30
2019-03-29T04:33:30.819Z,40.37
2019-03-29T04:36:03.297Z,39.03
2019-03-29T04:38:35.734Z,41.17
2019-03-29T04:41:07.972Z,39.13
2019-03-29T04:43:41.221Z,43.60
2019-03-29T04:46:13.804Z,41.00
2019-03-29T04:48:46.692Z,39.57
2019-03-29T04:51:19.199Z,39.13
2019-03-29T04:53:51.404Z,37.93
2019-03-29T04:56:23.869Z,43.57
2019-03-29T04:58:56.490Z,42.87
2019-03-29T05:01:28.714Z,39.67
2019-03-29T05:04:00.939Z,45.20
2019-03-29T05:06:33.463Z,42.60
2019-03-29T05:09:07.400Z,39.43
2019-03-29T05:11:40.197Z,41.67
2019-03-29T05:14:13.246Z,41.73
2019-03-29T05:16:46.579Z,44.37
2019-03-29T05:19:18.784Z,47.40
2019-03-29T05:21:52.311Z,39.40
2019-03-29T05:24:24.577Z,40.67
2019-03-29T05:26:58.003Z,44.00
2019-03-29T05:29:30.265Z,40.83
2019-03-29T05:32:02.802Z,44.40
2019-03-29T05:34:35.168Z,44.83
2019-03-29T05:37:07.313Z,46.17
2019-03-29T05:39:40.620Z,44.20
2019-03-29T05:42:12.753Z,42.17
2019-03-29T05:44:45.410Z,41.67
2019-03-29T05:47:17.942Z,40.20
2019-03-29T05:49:50.788Z,41.13
2019-03-29T05:52:23.580Z,45.30
2019-03-29T05:54:56.428Z,39.80
2019-03-29T05:57:29.233Z,43.07
2019-03-29T06:00:01.942Z,44.27
2019-03-29T06:02:34.362Z,46.87
2019-03-29T06:05:06.979Z,44.60
2019-03-29T06:07:39.085Z,45.33
2019-03-29T06:10:11.671Z,45.83
2019-03-29T06:12:43.876Z,44.43
2019-03-29T06:15:16.724Z,43.97
2019-03-29T06:17:49.527Z,43.63
2019-03-29T06:20:22.495Z,44.47
2019-03-29T06:22:55.055Z,44.10
2019-03-29T06:25:27.525Z,45.47
2019-03-29T06:28:00.339Z,43.40
2019-03-29T06:30:34.104Z,42.33
2019-03-29T06:33:06.609Z,41.33
2019-03-29T06:35:42.802Z,41.87
2019-03-29T06:38:16.443Z,42.37
2019-03-29T06:41:01.818Z,38.43
2019-03-29T06:43:22.941Z,39.90
2019-03-29T06:45:55.579Z,33.97
2019-03-29T06:48:28.016Z,33.17
2019-03-29T06:51:00.296Z,29.77
2019-03-29T06:53:32.972Z,27.50
2019-03-29T06:56:06.730Z,25.83
2019-03-29T06:58:38.868Z,24.87
2019-03-29T07:01:11.648Z,25.77
2019-03-29T07:03:44.077Z,17.40
2019-03-29T07:06:16.527Z,17.03
2019-03-29T07:08:48.492Z,12.50
2019-03-29T07:11:20.416Z,15.67
2019-03-29T07:13:57.809Z,22.47
2019-03-29T07:16:28.730Z,22.90
2019-03-29T07:19:00.927Z,22.63
2019-03-29T07:21:33.290Z,21.07
2019-03-29T07:24:05.679Z,21.27
2019-03-29T07:26:37.759Z,17.33
2019-03-29T07:29:10.294Z,19.20
2019-03-29T07:31:43.033Z,17.90
2019-03-29T07:34:16.648Z,20.30
2019-03-29T07:36:48.803Z,21.77
2019-03-29T07:39:21.939Z,18.80
2019-03-29T07:41:54.334Z,18.00
2019-03-29T07:44:26.945Z,20.13
2019-03-29T07:46:59.439Z,20.77
2019-03-29T07:49:32.609Z,21.33
2019-03-29T07:52:04.743Z,16.27
2019-03-29T07:54:37.230Z,18.70
2019-03-29T07:57:09.463Z,19.70
2019-03-29T07:59:42.170Z,17.30
2019-03-29T08:02:14.785Z,17.63
2019-03-29T08:04:47.614Z,16.23
2019-03-29T08:07:27.124Z,16.43
2019-03-29T08:09:54.532Z,17.93
2019-03-29T08:12:27.210Z,16.73
2019-03-29T08:14:59.086Z,15.47
2019-03-29T08:17:31.791Z,18.87
2019-03-29T08:20:36.433Z,17.63
2019-03-29T08:22:38.863Z,12.87
2019-03-29T08:25:12.571Z,13.67
2019-03-29T08:27:44.690Z,10.27
2019-03-29T08:30:17.712Z,8.97
2019-03-29T08:32:50.313Z,9.90
2019-03-29T08:35:23.295Z,12.60
2019-03-29T08:37:56.676Z,10.43
2019-03-29T08:40:29.002Z,8.10
2019-03-29T08:43:01.739Z,6.83
2019-03-29T08:45:34.462Z,7.63
2019-03-29T08:48:07.583Z,7.00
2019-03-29T08:50:40.297Z,8.17
2019-03-29T08:53:12.701Z,10.57
2019-03-29T08:55:46.383Z,10.07
2019-03-29T08:58:19.729Z,8.20
2019-03-29T09:00:52.666Z,10.10
2019-03-29T09:03:25.472Z,11.00
2019-03-29T09:05:58.345Z,10.73
2019-03-29T09:08:30.909Z,14.20
2019-03-29T09:11:03.760Z,13.00
2019-03-29T09:13:36.542Z,13.47
2019-03-29T09:16:09.084Z,14.40
2019-03-29T09:18:42.040Z,11.57
2019-03-29T09:21:14.494Z,11.30
2019-03-29T09:23:46.911Z,13.63
2019-03-29T09:26:19.560Z,13.93
2019-03-29T09:28:52.278Z,9.63
2019-03-29T09:31:24.905Z,10.77
2019-03-29T09:33:58.670Z,9.93
2019-03-29T09:36:31.378Z,16.33
2019-03-29T09:39:05.390Z,9.93
2019-03-29T09:41:38.048Z,9.00
2019-03-29T09:44:10.680Z,10.13
2019-03-29T09:46:42.666Z,9.27
2019-03-29T09:49:15.040Z,10.67
2019-03-29T09:51:47.179Z,9.97
2019-03-29T09:54:20.558Z,10.00
2019-03-29T09:56:52.892Z,11.93
2019-03-29T09:59:25.188Z,11.23
2019-03-29T10:01:57.664Z,8.53
2019-03-29T10:04:30.575Z,9.20
2019-03-29T10:07:03.800Z,7.80
2019-03-29T10:09:35.709Z,8.33
2019-03-29T10:12:08.168Z,6.90
2019-03-29T10:14:40.545Z,9.80
2019-03-29T10:17:13.066Z,8.20
2019-03-29T10:19:45.359Z,7.97
2019-03-29T10:22:17.794Z,8.00
2019-03-29T10:24:49.935Z,7.43
2019-03-29T10:27:22.418Z,9.60
2019-03-29T10:29:54.842Z,8.43
2019-03-29T10:32:27.290Z,8.07
2019-03-29T10:35:00.034Z,9.37
2019-03-29T10:37:32.311Z,8.10
2019-03-29T10:40:05.211Z,7.77
2019-03-29T10:42:40.075Z,8.37
2019-03-29T10:45:12.074Z,9.83
2019-03-29T10:47:44.482Z,8.87
2019-03-29T10:50:17.095Z,8.27
2019-03-29T10:52:49.995Z,8.83
2019-03-29T10:55:22.357Z,9.03
2019-03-29T10:57:54.375Z,11.97
2019-03-29T11:00:38.097Z,8.37
2019-03-29T11:03:11.443Z,6.90
2019-03-29T11:05:44.691Z,7.83
2019-03-29T11:08:16.866Z,6.27
2019-03-29T11:10:49.033Z,9.50
2019-03-29T11:13:21.901Z,11.07
2019-03-29T11:15:54.599Z,12.80
2019-03-29T11:18:26.757Z,8.17
2019-03-29T11:20:59.371Z,8.23
2019-03-29T11:23:31.722Z,7.80
2019-03-29T11:26:04.887Z,9.13
2019-03-29T11:28:37.180Z,7.57
2019-03-29T11:31:10.441Z,7.10
2019-03-29T11:33:42.732Z,7.17
2019-03-29T11:36:16.002Z,8.03
2019-03-29T11:38:48.644Z,7.97
2019-03-29T11:41:21.411Z,6.03
2019-03-29T11:43:54.110Z,5.07
2019-03-29T11:46:26.461Z,7.73
2019-03-29T11:48:59.152Z,6.33
2019-03-29T11:51:31.959Z,7.70
2019-03-29T11:54:03.772Z,5.10
2019-03-29T11:56:36.227Z,6.40
2019-03-29T11:59:08.761Z,7.43
2019-03-29T12:01:41.769Z,7.97
2019-03-29T12:04:13.891Z,5.83
2019-03-29T12:06:46.152Z,6.17
2019-03-29T12:09:17.967Z,5.83
2019-03-29T12:11:50.713Z,4.47
2019-03-29T12:14:22.596Z,5.87
2019-03-29T12:16:55.334Z,5.33
2019-03-29T12:19:28.344Z,7.30
2019-03-29T12:22:01.015Z,6.23
2019-03-29T12:24:33.555Z,8.00
2019-03-29T12:27:06.397Z,5.73
2019-03-29T12:29:38.533Z,6.20
2019-03-29T12:32:10.959Z,4.10
2019-03-29T12:34:43.354Z,4.23
2019-03-29T12:37:15.690Z,6.30
2019-03-29T12:39:48.219Z,5.27
2019-03-29T12:42:21.092Z,5.27
2019-03-29T12:44:53.848Z,8.40
2019-03-29T12:47:26.180Z,5.62
2019-03-29T12:49:58.141Z,6.87
2019-03-29T12:52:30.852Z,4.87
2019-03-29T12:55:03.206Z,5.93
2019-03-29T12:57:38.719Z,5.27
2019-03-29T13:00:11.645Z,8.40
2019-03-29T13:02:43.887Z,5.23
2019-03-29T13:05:16.526Z,5.97
2019-03-29T13:07:49.139Z,6.00
2019-03-29T13:10:21.747Z,7.87
2019-03-29T13:12:54.446Z,6.17
2019-03-29T13:15:27.020Z,9.53
2019-03-29T13:17:59.960Z,9.67
2019-03-29T13:20:32.120Z,8.87
2019-03-29T13:23:04.632Z,6.93
2019-03-29T13:25:36.858Z,5.40
2019-03-29T13:28:10.045Z,7.03
2019-03-29T13:30:42.119Z,5.00
2019-03-29T13:33:14.636Z,7.87
2019-03-29T13:35:47.262Z,5.13
2019-03-29T13:38:20.652Z,7.97
2019-03-29T13:40:53.353Z,5.20
2019-03-29T13:43:26.352Z,8.50
2019-03-29T13:45:59.199Z,6.50
2019-03-29T13:48:31.854Z,5.67
2019-03-29T13:51:04.452Z,12.90
2019-03-29T13:53:36.681Z,5.13
2019-03-29T13:56:08.793Z,5.97
2019-03-29T13:58:41.519Z,5.33
2019-03-29T14:01:14.496Z,6.93
2019-03-29T14:03:47.341Z,7.77
2019-03-29T14:06:19.623Z,6.90
2019-03-29T14:08:52.149Z,13.43
2019-03-29T14:11:24.672Z,7.60
2019-03-29T14:13:56.619Z,6.10
2019-03-29T14:16:29.106Z,6.20
2019-03-29T14:19:01.307Z,6.10
2019-03-29T14:21:34.213Z,6.33
2019-03-29T14:24:06.622Z,7.87
2019-03-29T14:26:39.134Z,6.63
2019-03-29T14:29:11.477Z,8.53
2019-03-29T14:31:44.101Z,5.87
2019-03-29T14:34:16.694Z,6.37
2019-03-29T14:36:49.845Z,6.83
2019-03-29T14:39:22.112Z,7.17
2019-03-29T14:41:55.345Z,8.97
2019-03-29T14:44:27.975Z,7.80
2019-03-29T14:47:01.463Z,9.30
2019-03-29T14:49:33.993Z,5.03
2019-03-29T14:52:06.542Z,7.23
2019-03-29T14:54:39.775Z,5.93
2019-03-29T14:57:12.303Z,6.20
2019-03-29T14:59:45.097Z,7.00
2019-03-29T15:02:16.959Z,6.67
2019-03-29T15:04:49.437Z,6.63
2019-03-29T15:07:22.724Z,9.10
2019-03-29T15:09:55.877Z,6.47
2019-03-29T15:12:28.020Z,10.17
2019-03-29T15:15:06.346Z,10.53
2019-03-29T15:17:34.729Z,8.67
2019-03-29T15:20:07.209Z,8.10
2019-03-29T15:22:41.984Z,6.30
2019-03-29T15:25:14.386Z,6.83
2019-03-29T15:27:46.308Z,7.70
2019-03-29T15:30:18.737Z,7.70
2019-03-29T15:32:50.892Z,7.60
2019-03-29T15:35:23.670Z,7.67
2019-03-29T15:37:55.802Z,7.40
2019-03-29T15:40:28.657Z,6.67
2019-03-29T15:43:01.366Z,6.90
2019-03-29T15:45:33.748Z,7.07
2019-03-29T15:48:06.241Z,8.37
2019-03-29T15:50:38.757Z,6.10
2019-03-29T15:53:10.874Z,7.83
2019-03-29T15:55:43.369Z,6.10
2019-03-29T15:58:15.726Z,7.40
2019-03-29T16:00:48.611Z,6.03
2019-03-29T16:03:21.264Z,7.57
2019-03-29T16:05:53.734Z,9.13
2019-03-29T16:08:26.742Z,8.10
2019-03-29T16:10:59.749Z,7.27
2019-03-29T16:13:31.709Z,10.63
2019-03-29T16:16:03.939Z,6.50
2019-03-29T16:18:36.873Z,7.00
2019-03-29T16:21:09.432Z,7.90
2019-03-29T16:23:41.607Z,9.47
2019-03-29T16:26:14.289Z,7.80
2019-03-29T16:28:46.945Z,8.70
2019-03-29T16:31:19.461Z,12.00
2019-03-29T16:33:52.205Z,8.00
2019-03-29T16:36:24.096Z,18.83
2019-03-29T16:38:56.757Z,6.77
2019-03-29T16:41:29.809Z,6.53
2019-03-29T16:44:02.842Z,8.10
2019-03-29T16:46:35.397Z,7.00
2019-03-29T16:49:07.461Z,7.00
2019-03-29T16:51:39.568Z,6.67
2019-03-29T16:54:12.410Z,10.67
2019-03-29T16:56:44.925Z,6.13
2019-03-29T16:59:17.457Z,7.00
2019-03-29T17:01:51.464Z,7.20
2019-03-29T17:04:24.041Z,7.43
2019-03-29T17:06:56.191Z,7.00
2019-03-29T17:09:28.332Z,8.73
2019-03-29T17:12:00.604Z,7.23
2019-03-29T17:14:33.728Z,10.53
2019-03-29T17:17:06.025Z,9.83
2019-03-29T17:19:39.636Z,7.10
2019-03-29T17:22:11.966Z,8.07
2019-03-29T17:24:56.310Z,10.13
2019-03-29T17:27:18.890Z,9.40
2019-03-29T17:29:51.962Z,7.53
2019-03-29T17:32:24.416Z,8.53
2019-03-29T17:34:56.872Z,8.70
2019-03-29T17:37:29.464Z,10.20
2019-03-29T17:40:02.267Z,8.53
2019-03-29T17:42:35.990Z,8.80
2019-03-29T17:45:09.828Z,9.77
2019-03-29T17:47:42.020Z,9.53
2019-03-29T17:50:14.404Z,11.03
2019-03-29T17:52:48.903Z,11.93
2019-03-29T17:55:20.962Z,10.93
2019-03-29T17:57:54.412Z,11.70
2019-03-29T18:00:27.483Z,14.23
2019-03-29T18:02:59.858Z,13.50
2019-03-29T18:05:32.451Z,13.97
2019-03-29T18:08:04.700Z,13.60
2019-03-29T18:10:38.917Z,12.20
2019-03-29T18:13:11.349Z,12.27
2019-03-29T18:15:43.780Z,14.30
2019-03-29T18:18:16.668Z,13.20
2019-03-29T18:20:49.099Z,13.73
2019-03-29T18:23:24.727Z,13.00
2019-03-29T18:25:55.558Z,13.73
2019-03-29T18:28:28.085Z,12.50
2019-03-29T18:31:00.442Z,12.40
2019-03-29T18:33:32.909Z,13.83
2019-03-29T18:36:06.617Z,15.40
2019-03-29T18:38:40.962Z,16.00
2019-03-29T18:41:14.027Z,15.67
2019-03-29T18:43:46.502Z,14.63
2019-03-29T18:46:19.282Z,16.23
2019-03-29T18:48:52.031Z,17.10
2019-03-29T18:51:24.714Z,17.03
2019-03-29T18:53:57.321Z,14.63
2019-03-29T18:56:29.814Z,17.73
2019-03-29T18:59:02.998Z,16.73
2019-03-29T19:01:34.826Z,15.80
2019-03-29T19:04:07.212Z,17.73
2019-03-29T19:06:39.716Z,17.40
2019-03-29T19:09:12.540Z,18.63
2019-03-29T19:11:44.669Z,18.30
2019-03-29T19:14:17.433Z,18.70
2019-03-29T19:16:58.815Z,16.17
2019-03-29T19:19:23.998Z,19.33
2019-03-29T19:21:55.816Z,23.23
2019-03-29T19:24:28.230Z,19.50
2019-03-29T19:27:01.424Z,20.27
2019-03-29T19:29:33.821Z,19.50
2019-03-29T19:32:06.483Z,21.63
2019-03-29T19:34:38.383Z,17.93
2019-03-29T19:37:10.576Z,18.00
2019-03-29T19:39:43.142Z,17.23
2019-03-29T19:42:16.912Z,19.30
2019-03-29T19:44:48.859Z,17.83
2019-03-29T19:47:22.233Z,19.23
2019-03-29T19:49:55.488Z,17.80
2019-03-29T19:52:27.471Z,15.27
2019-03-29T19:55:01.474Z,18.57
2019-03-29T19:57:34.047Z,22.10
2019-03-29T20:00:09.070Z,19.93
2019-03-29T20:02:41.454Z,19.07
2019-03-29T20:05:28.715Z,21.30
2019-03-29T20:08:01.673Z,18.37
2019-03-29T20:10:34.378Z,19.27
2019-03-29T20:13:07.355Z,18.27
2019-03-29T20:15:39.704Z,19.83
2019-03-29T20:18:13.366Z,19.93
2019-03-29T20:20:45.803Z,19.30
2019-03-29T20:23:18.798Z,17.27
2019-03-29T20:25:50.679Z,21.67
2019-03-29T20:28:28.936Z,19.30
2019-03-29T20:31:01.592Z,20.53
2019-03-29T20:33:34.189Z,19.03
2019-03-29T20:36:06.379Z,21.10
2019-03-29T20:38:38.192Z,21.33
2019-03-29T20:41:10.525Z,19.40
2019-03-29T20:43:42.954Z,20.87
2019-03-29T20:46:15.578Z,21.23
2019-03-29T20:48:48.258Z,18.73
2019-03-29T20:51:20.975Z,19.67
2019-03-29T20:53:53.127Z,20.27
2019-03-29T20:56:25.210Z,20.87
2019-03-29T20:58:57.367Z,20.50
2019-03-29T21:01:30.792Z,19.20
2019-03-29T21:04:03.286Z,17.10
2019-03-29T21:06:36.079Z,22.47
2019-03-29T21:09:09.961Z,21.90
2019-03-29T21:11:42.801Z,21.17
2019-03-29T21:14:15.047Z,18.80
2019-03-29T21:16:47.363Z,19.50
2019-03-29T21:19:19.780Z,19.00
2019-03-29T21:21:52.206Z,20.27
2019-03-29T21:24:25.167Z,20.37
2019-03-29T21:26:57.567Z,21.43
2019-03-29T21:29:30.597Z,19.87
2019-03-29T21:32:02.763Z,20.00
2019-03-29T21:34:35.188Z,20.10
2019-03-29T21:37:07.862Z,23.63
2019-03-29T21:39:40.247Z,22.83
2019-03-29T21:42:12.808Z,23.93
2019-03-29T21:44:46.237Z,22.50
2019-03-29T21:47:18.391Z,21.13
2019-03-29T21:49:50.739Z,21.27
2019-03-29T21:52:23.566Z,20.53
2019-03-29T21:54:56.339Z,19.73
2019-03-29T21:57:29.038Z,22.37
2019-03-29T22:00:00.842Z,22.27
2019-03-29T22:02:34.478Z,21.97
2019-03-29T22:05:10.419Z,21.73
2019-03-29T22:07:42.792Z,23.53
2019-03-29T22:10:15.083Z,22.43
2019-03-29T22:12:47.977Z,25.73
2019-03-29T22:15:20.438Z,23.27
2019-03-29T22:17:52.604Z,24.37
2019-03-29T22:20:25.316Z,24.30
2019-03-29T22:22:57.644Z,24.40
2019-03-29T22:25:31.244Z,25.67
2019-03-29T22:28:03.484Z,23.07
2019-03-29T22:30:35.939Z,21.20
2019-03-29T22:33:08.764Z,21.03
2019-03-29T22:35:41.105Z,24.07
2019-03-29T22:38:14.222Z,23.97
2019-03-29T22:40:47.257Z,23.23
2019-03-29T22:43:20.309Z,21.13
2019-03-29T22:45:52.435Z,23.53
2019-03-29T22:48:24.328Z,23.53
2019-03-29T22:50:57.425Z,24.00
2019-03-29T22:53:29.490Z,21.67
2019-03-29T22:56:01.625Z,20.07
2019-03-29T22:58:33.767Z,19.87
2019-03-29T23:01:08.029Z,24.33
2019-03-29T23:03:41.876Z,21.53
2019-03-29T23:06:14.322Z,19.07
2019-03-29T23:08:47.180Z,19.70
2019-03-29T23:11:19.262Z,22.37
2019-03-29T23:13:51.591Z,23.10
2019-03-29T23:16:23.719Z,24.37
2019-03-29T23:19:06.451Z,22.10
2019-03-29T23:21:31.002Z,21.50
2019-03-29T23:24:03.142Z,22.60
2019-03-29T23:26:35.748Z,24.03
2019-03-29T23:29:08.240Z,24.80
2019-03-29T23:31:40.695Z,21.83
2019-03-29T23:34:12.506Z,22.00
2019-03-29T23:36:44.766Z,25.17
2019-03-29T23:39:17.236Z,23.07
2019-03-29T23:41:50.346Z,24.63
2019-03-29T23:44:23.189Z,23.02
2019-03-29T23:46:56.564Z,24.07
2019-03-29T23:49:28.381Z,20.80
2019-03-29T23:52:00.458Z,26.23
2019-03-29T23:54:32.718Z,23.20
2019-03-29T23:57:05.060Z,24.67
2019-03-29T23:59:37.715Z,22.65
